Terminal Aerodrome Forecast
Issued by NWS Charleston, WV

Home | Current Version | Previous Version | Text Only | Print | Product List | Glossary On
Versions: 1 2 3 4 5 6 7 8 9 10 11 12 13 14 15 16 17 18 19 20 21 22 23 24 25 26 27 28 29 30 31 32 33
000
FTUS41 KRLX 281400 AAB
TAFCRW
TAF AMD
KCRW 281427Z 2814/2912 03004KT P6SM BKN008 BKN015
      TEMPO 2814/2816 SCT015 BKN025
     FM281600 03003KT P6SM SCT015 BKN025
      TEMPO 2816/2818 SCT025
     FM281800 36005KT P6SM SCT045
     FM290100 VRB03KT P6SM FEW100
     FM290700 00000KT 5SM BR FEW100
     FM291000 00000KT 2SM BR FEW080=

USA.gov is the U.S. government's official web portal to all federal, state and local government web resources and services.